Time;durP1;ratioP1;P1;durP2;ratioP2;P2;SDS_P1;SDS_P2;PMS_P1;PMS_P2;Temp;Humidity;BMP_temperature;BMP_pressure;BME280_temperature;BME280_humidity;BME280_pressure;Samples;Min_cycle;Max_cycle;Signal;HPM_P1;HPM_P2
2023/09/24 00:00:13;;;;;;;7.40;4.43;;;;;;;;;;5004576;28;20211;-67
2023/09/24 00:02:38;;;;;;;11.07;5.40;;;;;;;;;;5025179;28;20191;-66
2023/09/24 00:05:06;;;;;;;8.00;5.40;;;;;;;;;;5027556;28;20174;-67
2023/09/24 00:07:31;;;;;;;8.13;5.43;;;;;;;;;;5018567;28;20174;-67
2023/09/24 00:10:00;;;;;;;10.97;5.07;;;;;;;;;;5025939;28;20209;-67
2023/09/24 00:12:25;;;;;;;10.23;5.50;;;;;;;;;;5012248;28;20185;-67
2023/09/24 00:14:50;;;;;;;8.97;5.53;;;;;;;;;;5011319;28;20695;-67
2023/09/24 00:17:16;;;;;;;8.60;5.23;;;;;;;;;;5030848;28;20178;-67
2023/09/24 00:19:41;;;;;;;9.57;5.87;;;;;;;;;;5098669;22;20227;-71
2023/09/24 00:22:06;;;;;;;10.97;6.23;;;;;;;;;;5013073;28;20183;-72
2023/09/24 00:24:32;;;;;;;10.80;5.83;;;;;;;;;;5012805;28;20568;-72
2023/09/24 00:26:57;;;;;;;11.53;5.77;;;;;;;;;;5010763;28;20182;-73
2023/09/24 00:29:22;;;;;;;9.83;5.70;;;;;;;;;;5018581;28;20189;-72
2023/09/24 00:31:47;;;;;;;11.73;5.90;;;;;;;;;;4997244;28;20423;-72
2023/09/24 00:34:13;;;;;;;9.00;5.00;;;;;;;;;;5015986;28;20206;-72
2023/09/24 00:36:38;;;;;;;9.00;6.20;;;;;;;;;;4996324;28;20226;-73
2023/09/24 00:39:04;;;;;;;10.63;6.20;;;;;;;;;;5015106;28;20199;-74
2023/09/24 00:41:30;;;;;;;12.20;6.50;;;;;;;;;;5017583;28;20214;-73
2023/09/24 00:43:57;;;;;;;12.47;7.57;;;;;;;;;;5015490;28;20193;-73
2023/09/24 00:46:22;;;;;;;13.63;7.63;;;;;;;;;;5015747;28;20654;-73
2023/09/24 00:48:49;;;;;;;13.00;6.60;;;;;;;;;;5018163;28;20186;-73
2023/09/24 00:51:16;;;;;;;8.70;6.57;;;;;;;;;;5016775;28;20199;-73
2023/09/24 00:53:41;;;;;;;12.03;6.90;;;;;;;;;;4996063;28;20639;-74
2023/09/24 00:56:06;;;;;;;10.13;6.37;;;;;;;;;;5015192;28;20270;-74
2023/09/24 00:58:34;;;;;;;12.17;7.27;;;;;;;;;;5018066;28;20179;-73
2023/09/24 01:00:59;;;;;;;9.03;5.77;;;;;;;;;;5016889;28;20207;-73
2023/09/24 01:03:26;;;;;;;10.33;6.50;;;;;;;;;;5015294;28;20174;-73
2023/09/24 01:05:52;;;;;;;18.40;7.23;;;;;;;;;;5014195;28;20198;-73
2023/09/24 01:08:18;;;;;;;9.53;6.07;;;;;;;;;;5016808;28;20179;-73
2023/09/24 01:10:47;;;;;;;10.80;6.50;;;;;;;;;;5015096;28;20641;-73
2023/09/24 01:13:15;;;;;;;9.90;6.73;;;;;;;;;;5000226;28;20182;-73
2023/09/24 01:15:40;;;;;;;10.83;7.00;;;;;;;;;;5007325;28;20236;-73
2023/09/24 01:18:07;;;;;;;10.73;7.13;;;;;;;;;;5018454;28;20222;-73
2023/09/24 01:20:32;;;;;;;16.37;7.90;;;;;;;;;;5016822;28;20210;-73
2023/09/24 01:23:03;;;;;;;14.03;6.60;;;;;;;;;;5019433;28;20614;-73
2023/09/24 01:25:32;;;;;;;16.03;7.50;;;;;;;;;;4999896;28;20196;-74
2023/09/24 01:27:58;;;;;;;11.87;7.47;;;;;;;;;;5020604;28;20601;-74
2023/09/24 01:30:24;;;;;;;12.27;7.13;;;;;;;;;;5017965;28;20213;-74
2023/09/24 01:32:50;;;;;;;14.10;7.50;;;;;;;;;;5013402;28;20191;-74
2023/09/24 01:35:17;;;;;;;12.37;8.80;;;;;;;;;;5005035;28;20670;-74
2023/09/24 01:37:42;;;;;;;14.83;6.97;;;;;;;;;;5019336;28;20176;-74
2023/09/24 01:40:18;;;;;;;13.53;7.87;;;;;;;;;;5017147;28;20229;-74
2023/09/24 01:42:43;;;;;;;11.60;7.63;;;;;;;;;;5017687;28;20209;-74
2023/09/24 01:45:10;;;;;;;14.67;7.80;;;;;;;;;;5022097;28;20655;-72
2023/09/24 01:47:37;;;;;;;17.60;8.17;;;;;;;;;;5018087;28;20187;-73
2023/09/24 01:50:06;;;;;;;17.77;8.60;;;;;;;;;;5020476;28;20214;-74
2023/09/24 01:52:31;;;;;;;17.60;8.83;;;;;;;;;;5016949;28;20183;-74
2023/09/24 01:54:57;;;;;;;15.80;8.70;;;;;;;;;;5015944;28;20182;-74
2023/09/24 01:57:22;;;;;;;20.90;8.90;;;;;;;;;;5019799;28;20182;-74
2023/09/24 01:59:47;;;;;;;24.27;8.83;;;;;;;;;;5019688;28;20650;-73
2023/09/24 02:02:13;;;;;;;14.60;8.83;;;;;;;;;;5021112;28;20273;-73
2023/09/24 02:04:38;;;;;;;13.17;8.30;;;;;;;;;;5017398;28;20179;-73
2023/09/24 02:07:04;;;;;;;11.57;8.30;;;;;;;;;;5020313;28;20179;-72
2023/09/24 02:09:29;;;;;;;11.83;8.03;;;;;;;;;;5015546;28;20209;-72
2023/09/24 02:11:57;;;;;;;14.53;8.43;;;;;;;;;;5019502;28;20715;-73
2023/09/24 02:14:22;;;;;;;21.43;9.57;;;;;;;;;;5019128;28;20189;-74
2023/09/24 02:16:47;;;;;;;13.60;8.17;;;;;;;;;;5018579;28;20269;-73
2023/09/24 02:19:14;;;;;;;16.50;8.50;;;;;;;;;;5017342;28;20187;-73
2023/09/24 02:21:40;;;;;;;12.43;7.23;;;;;;;;;;5019352;28;20186;-73
2023/09/24 02:24:06;;;;;;;16.80;8.47;;;;;;;;;;5014431;28;20228;-73
2023/09/24 02:26:32;;;;;;;10.10;7.70;;;;;;;;;;5017701;28;20179;-72
2023/09/24 02:28:57;;;;;;;13.80;7.73;;;;;;;;;;5015646;28;20194;-73
2023/09/24 02:31:22;;;;;;;12.20;7.97;;;;;;;;;;5021388;28;20201;-73
2023/09/24 02:33:48;;;;;;;14.07;7.70;;;;;;;;;;5014319;28;20175;-72
2023/09/24 02:36:13;;;;;;;12.03;7.07;;;;;;;;;;5016211;28;20265;-73
2023/09/24 02:38:38;;;;;;;13.77;6.80;;;;;;;;;;5019168;28;20170;-73
2023/09/24 02:41:04;;;;;;;11.03;7.00;;;;;;;;;;5002988;28;20199;-73
2023/09/24 02:43:32;;;;;;;11.77;7.17;;;;;;;;;;5002226;28;20178;-73
2023/09/24 02:45:58;;;;;;;9.77;6.40;;;;;;;;;;5018478;28;20708;-74
2023/09/24 02:48:23;;;;;;;12.20;7.20;;;;;;;;;;5014957;28;20205;-74
2023/09/24 02:50:49;;;;;;;11.83;6.90;;;;;;;;;;5016690;28;20241;-73
2023/09/24 02:53:15;;;;;;;11.53;6.57;;;;;;;;;;5001111;28;20651;-74
2023/09/24 02:55:41;;;;;;;12.77;7.43;;;;;;;;;;4998176;28;20186;-74
2023/09/24 02:58:06;;;;;;;9.17;6.03;;;;;;;;;;5017812;28;20179;-72
2023/09/24 03:00:41;;;;;;;11.83;7.00;;;;;;;;;;5004087;28;20205;-73
2023/09/24 03:03:07;;;;;;;14.60;6.80;;;;;;;;;;5002512;28;20598;-72
2023/09/24 03:05:32;;;;;;;12.83;6.80;;;;;;;;;;5016087;28;20259;-73
2023/09/24 03:08:05;;;;;;;13.40;6.90;;;;;;;;;;5018892;28;20183;-72
2023/09/24 03:10:31;;;;;;;10.37;6.63;;;;;;;;;;5018726;28;20202;-73
2023/09/24 03:12:56;;;;;;;11.77;7.23;;;;;;;;;;5017243;28;20175;-72
2023/09/24 03:15:23;;;;;;;9.63;6.33;;;;;;;;;;5019760;28;20197;-73
2023/09/24 03:17:48;;;;;;;12.90;7.40;;;;;;;;;;5014671;28;20198;-72
2023/09/24 03:20:19;;;;;;;13.97;7.40;;;;;;;;;;5001509;28;20215;-74
2023/09/24 03:22:52;;;;;;;15.23;7.20;;;;;;;;;;5019375;28;20310;-73
2023/09/24 03:25:21;;;;;;;13.10;6.87;;;;;;;;;;5012940;28;20183;-73
2023/09/24 03:27:47;;;;;;;11.87;6.53;;;;;;;;;;5017966;28;20183;-73
2023/09/24 03:30:17;;;;;;;13.90;7.10;;;;;;;;;;5015051;28;20717;-73
2023/09/24 03:32:42;;;;;;;9.57;7.03;;;;;;;;;;5018171;28;20205;-72
2023/09/24 03:35:09;;;;;;;11.27;7.30;;;;;;;;;;5012752;28;20651;-72
2023/09/24 03:37:40;;;;;;;12.30;7.10;;;;;;;;;;5014631;28;20191;-72
2023/09/24 03:40:06;;;;;;;12.00;7.27;;;;;;;;;;5019168;28;20568;-73
2023/09/24 03:42:31;;;;;;;12.57;8.00;;;;;;;;;;5017914;28;20191;-74
2023/09/24 03:44:57;;;;;;;12.70;7.50;;;;;;;;;;5021913;28;20212;-73
2023/09/24 03:47:22;;;;;;;12.90;7.30;;;;;;;;;;4994556;28;20179;-73
2023/09/24 03:49:47;;;;;;;10.60;6.63;;;;;;;;;;5017407;28;20698;-73
2023/09/24 03:52:12;;;;;;;12.77;7.10;;;;;;;;;;5019191;28;20567;-74
2023/09/24 03:54:38;;;;;;;15.40;8.03;;;;;;;;;;4996071;28;20170;-73
2023/09/24 03:57:05;;;;;;;13.43;7.90;;;;;;;;;;5013173;28;20186;-73
2023/09/24 03:59:34;;;;;;;11.27;7.23;;;;;;;;;;5017999;28;20551;-74
2023/09/24 04:02:00;;;;;;;13.60;8.20;;;;;;;;;;5017803;28;20542;-74
2023/09/24 04:04:26;;;;;;;14.33;8.17;;;;;;;;;;5016884;28;20190;-74
2023/09/24 04:06:51;;;;;;;16.33;8.40;;;;;;;;;;5016239;28;20183;-74
2023/09/24 04:09:17;;;;;;;12.30;7.50;;;;;;;;;;5020501;28;20264;-73
2023/09/24 04:11:42;;;;;;;13.77;8.43;;;;;;;;;;5001238;28;20268;-74
2023/09/24 04:14:07;;;;;;;11.10;8.10;;;;;;;;;;4999656;28;20181;-73
2023/09/24 04:16:32;;;;;;;16.43;9.27;;;;;;;;;;5018559;28;20654;-73
2023/09/24 04:18:57;;;;;;;16.27;7.97;;;;;;;;;;5015310;28;20254;-73
2023/09/24 04:21:24;;;;;;;17.43;10.10;;;;;;;;;;5012989;28;20297;-74
2023/09/24 04:23:49;;;;;;;20.97;10.17;;;;;;;;;;4996095;28;20266;-73
2023/09/24 04:26:20;;;;;;;17.33;10.43;;;;;;;;;;4999863;28;20213;-73
2023/09/24 04:28:45;;;;;;;15.50;9.07;;;;;;;;;;5020227;28;20210;-73
2023/09/24 04:31:11;;;;;;;16.53;9.27;;;;;;;;;;5017434;28;20960;-73
2023/09/24 04:33:37;;;;;;;17.00;9.33;;;;;;;;;;5017679;28;20181;-73
2023/09/24 04:36:02;;;;;;;14.03;8.40;;;;;;;;;;5013489;28;20650;-73
2023/09/24 04:38:28;;;;;;;16.20;9.73;;;;;;;;;;5016716;28;20225;-73
2023/09/24 04:40:53;;;;;;;17.60;9.27;;;;;;;;;;4998845;28;20194;-74
2023/09/24 04:43:18;;;;;;;21.60;11.17;;;;;;;;;;5016594;28;20175;-73
2023/09/24 04:45:43;;;;;;;20.60;10.77;;;;;;;;;;5012046;28;20179;-73
2023/09/24 04:48:09;;;;;;;22.03;10.60;;;;;;;;;;5017345;28;20175;-73
2023/09/24 04:50:34;;;;;;;14.23;9.47;;;;;;;;;;4998707;28;20206;-73
2023/09/24 04:52:59;;;;;;;18.77;11.37;;;;;;;;;;5018328;28;20175;-73
2023/09/24 04:55:25;;;;;;;16.97;11.43;;;;;;;;;;5014829;28;20175;-73
2023/09/24 04:57:50;;;;;;;16.03;10.30;;;;;;;;;;5016451;28;20174;-73
2023/09/24 05:00:16;;;;;;;18.33;11.23;;;;;;;;;;5020324;28;20287;-73
2023/09/24 05:02:41;;;;;;;17.40;11.93;;;;;;;;;;5000226;28;20561;-73
2023/09/24 05:05:07;;;;;;;24.93;12.23;;;;;;;;;;5013702;28;20190;-74
2023/09/24 05:07:32;;;;;;;21.77;12.33;;;;;;;;;;5013754;28;20190;-73
2023/09/24 05:09:57;;;;;;;16.67;11.33;;;;;;;;;;5011063;28;20207;-74
2023/09/24 05:12:23;;;;;;;17.30;10.90;;;;;;;;;;5021444;28;20177;-74
2023/09/24 05:14:48;;;;;;;16.77;12.13;;;;;;;;;;4999514;28;20192;-74
2023/09/24 05:17:13;;;;;;;15.80;11.23;;;;;;;;;;5013447;28;20270;-74
2023/09/24 05:19:38;;;;;;;16.20;10.97;;;;;;;;;;5001555;28;20692;-73
2023/09/24 05:22:04;;;;;;;20.07;11.77;;;;;;;;;;5020374;28;20221;-74
2023/09/24 05:24:32;;;;;;;19.37;11.37;;;;;;;;;;5002237;28;20186;-74
2023/09/24 05:26:57;;;;;;;18.57;11.10;;;;;;;;;;5012435;28;20187;-72
2023/09/24 05:29:23;;;;;;;18.27;11.27;;;;;;;;;;5018278;28;20240;-73
2023/09/24 05:31:49;;;;;;;21.47;11.50;;;;;;;;;;5016550;28;20182;-73
2023/09/24 05:34:14;;;;;;;19.37;11.53;;;;;;;;;;5000444;28;20171;-72
2023/09/24 05:36:39;;;;;;;20.50;11.97;;;;;;;;;;5014433;28;20175;-74
2023/09/24 05:39:05;;;;;;;18.70;12.07;;;;;;;;;;5015781;28;20182;-72
2023/09/24 05:41:30;;;;;;;17.03;11.60;;;;;;;;;;5015761;28;20264;-71
2023/09/24 05:44:04;;;;;;;16.70;10.70;;;;;;;;;;5017317;28;20355;-73
2023/09/24 05:46:29;;;;;;;18.37;11.03;;;;;;;;;;5019636;28;20212;-73
2023/09/24 05:48:56;;;;;;;16.53;10.60;;;;;;;;;;5011768;28;20222;-73
2023/09/24 05:51:21;;;;;;;13.87;10.73;;;;;;;;;;5000333;28;20205;-72
2023/09/24 05:53:47;;;;;;;19.93;11.13;;;;;;;;;;5015140;28;20171;-73
2023/09/24 05:56:12;;;;;;;16.37;10.50;;;;;;;;;;5020858;28;20187;-73
2023/09/24 05:58:38;;;;;;;17.80;11.07;;;;;;;;;;5017993;28;20214;-74
2023/09/24 06:01:03;;;;;;;18.57;11.13;;;;;;;;;;4999618;28;20264;-74
2023/09/24 06:03:28;;;;;;;15.30;9.57;;;;;;;;;;4998457;28;20269;-74
2023/09/24 06:05:54;;;;;;;22.47;11.77;;;;;;;;;;5016276;28;20248;-74
2023/09/24 06:08:19;;;;;;;20.37;11.20;;;;;;;;;;5014117;28;20658;-72
2023/09/24 06:10:44;;;;;;;18.47;11.57;;;;;;;;;;5002586;28;20286;-73
2023/09/24 06:13:12;;;;;;;16.77;10.37;;;;;;;;;;5020547;28;20183;-73
2023/09/24 06:15:37;;;;;;;15.47;10.40;;;;;;;;;;5018947;28;20202;-72
2023/09/24 06:18:02;;;;;;;16.10;10.60;;;;;;;;;;5021771;28;20179;-73
2023/09/24 06:20:28;;;;;;;18.03;10.43;;;;;;;;;;5030165;23;20630;-67
2023/09/24 06:22:53;;;;;;;14.60;10.07;;;;;;;;;;5025730;28;20310;-68
2023/09/24 06:25:19;;;;;;;19.37;10.10;;;;;;;;;;5005320;28;20183;-67
2023/09/24 06:27:44;;;;;;;18.70;10.30;;;;;;;;;;5024597;28;20261;-67
2023/09/24 06:30:10;;;;;;;13.43;9.77;;;;;;;;;;5021732;28;20215;-67
2023/09/24 06:32:35;;;;;;;15.70;9.50;;;;;;;;;;4994729;28;20178;-67
2023/09/24 06:35:01;;;;;;;14.20;8.83;;;;;;;;;;5007186;28;20180;-67
2023/09/24 06:37:26;;;;;;;14.50;8.70;;;;;;;;;;5007259;28;20191;-67
2023/09/24 06:39:51;;;;;;;13.00;8.83;;;;;;;;;;5003715;28;20203;-67
2023/09/24 06:42:17;;;;;;;13.13;7.93;;;;;;;;;;5013162;28;20179;-67
2023/09/24 06:44:42;;;;;;;13.37;8.10;;;;;;;;;;5009733;28;20175;-68
2023/09/24 06:47:07;;;;;;;15.83;8.40;;;;;;;;;;5012783;28;20553;-66
2023/09/24 06:49:32;;;;;;;10.30;7.50;;;;;;;;;;5013055;28;20234;-66
2023/09/24 06:51:58;;;;;;;12.13;8.33;;;;;;;;;;5012414;28;20175;-66
2023/09/24 06:54:23;;;;;;;16.10;8.17;;;;;;;;;;5012932;28;20175;-67
2023/09/24 06:56:48;;;;;;;12.60;7.67;;;;;;;;;;5009462;28;20706;-67
2023/09/24 06:59:13;;;;;;;12.27;8.00;;;;;;;;;;5009396;28;20749;-67
2023/09/24 07:01:39;;;;;;;14.13;8.80;;;;;;;;;;5012509;28;20202;-67
2023/09/24 07:04:05;;;;;;;15.03;9.17;;;;;;;;;;5004929;28;20201;-67
2023/09/24 07:06:30;;;;;;;11.93;7.00;;;;;;;;;;5007955;28;20194;-67
2023/09/24 07:08:56;;;;;;;11.00;6.68;;;;;;;;;;5007531;28;20195;-67
2023/09/24 07:11:31;;;;;;;9.65;5.90;;;;;;;;;;5005926;28;20206;-67
2023/09/24 07:13:56;;;;;;;12.20;7.00;;;;;;;;;;5004759;28;20245;-67
2023/09/24 07:16:23;;;;;;;11.35;6.32;;;;;;;;;;5003866;28;20236;-67
2023/09/24 07:18:50;;;;;;;13.43;6.07;;;;;;;;;;5001462;28;20233;-67
2023/09/24 07:21:16;;;;;;;11.65;6.18;;;;;;;;;;4993681;28;20293;-67
2023/09/24 07:23:41;;;;;;;12.23;5.40;;;;;;;;;;4993053;28;20283;-67
2023/09/24 07:26:08;;;;;;;8.02;4.85;;;;;;;;;;5006427;28;20178;-66
2023/09/24 07:28:33;;;;;;;10.02;5.43;;;;;;;;;;5008137;28;20266;-66
2023/09/24 07:30:58;;;;;;;9.02;5.30;;;;;;;;;;5004299;28;20309;-67
2023/09/24 07:33:23;;;;;;;8.13;4.50;;;;;;;;;;4993110;28;20203;-67
2023/09/24 07:35:49;;;;;;;10.05;4.50;;;;;;;;;;5003734;28;20250;-67
2023/09/24 07:38:14;;;;;;;6.03;3.78;;;;;;;;;;5011372;28;20183;-67
2023/09/24 07:40:39;;;;;;;10.65;4.35;;;;;;;;;;5010894;28;20203;-67
2023/09/24 07:43:06;;;;;;;5.78;3.85;;;;;;;;;;5003693;28;20553;-67
2023/09/24 07:45:32;;;;;;;10.10;4.53;;;;;;;;;;5009972;28;20192;-67
2023/09/24 07:47:57;;;;;;;8.20;5.15;;;;;;;;;;5008124;28;20183;-66
2023/09/24 07:50:22;;;;;;;6.07;3.65;;;;;;;;;;5011001;28;20225;-66
2023/09/24 07:52:47;;;;;;;10.18;4.00;;;;;;;;;;5004163;28;20244;-67
2023/09/24 07:55:13;;;;;;;7.53;3.40;;;;;;;;;;5003964;28;20176;-66
2023/09/24 07:57:38;;;;;;;8.77;3.90;;;;;;;;;;5003895;28;20179;-66
2023/09/24 08:00:03;;;;;;;8.10;3.72;;;;;;;;;;4993466;28;20286;-66
2023/09/24 08:02:30;;;;;;;9.30;3.20;;;;;;;;;;4992562;28;20195;-66
2023/09/24 08:04:57;;;;;;;4.53;3.08;;;;;;;;;;5006315;28;20190;-66
2023/09/24 08:07:25;;;;;;;5.97;2.80;;;;;;;;;;4991340;28;20569;-67
2023/09/24 08:09:50;;;;;;;4.90;2.90;;;;;;;;;;5007763;28;20211;-67
2023/09/24 08:12:16;;;;;;;3.60;2.55;;;;;;;;;;5004760;28;20171;-66
2023/09/24 08:14:43;;;;;;;5.78;3.08;;;;;;;;;;5002150;28;20182;-66
2023/09/24 08:17:08;;;;;;;8.32;3.00;;;;;;;;;;5008456;28;20194;-66
2023/09/24 08:19:34;;;;;;;5.32;2.47;;;;;;;;;;5003270;28;20183;-66
2023/09/24 08:21:59;;;;;;;4.45;2.20;;;;;;;;;;5007681;28;20198;-66
2023/09/24 08:24:24;;;;;;;4.53;2.60;;;;;;;;;;4988485;28;20182;-66
2023/09/24 08:26:50;;;;;;;4.60;2.42;;;;;;;;;;5006280;28;20187;-65
2023/09/24 08:29:15;;;;;;;7.85;2.30;;;;;;;;;;5005886;28;20183;-66
2023/09/24 08:31:40;;;;;;;5.70;2.70;;;;;;;;;;4989223;28;20354;-66
2023/09/24 08:34:05;;;;;;;6.43;2.97;;;;;;;;;;5006807;28;20178;-66
2023/09/24 08:36:31;;;;;;;4.88;2.17;;;;;;;;;;5006147;28;20205;-66
2023/09/24 08:38:56;;;;;;;7.18;1.90;;;;;;;;;;5006930;28;20191;-66
2023/09/24 08:41:21;;;;;;;5.25;1.77;;;;;;;;;;5003653;28;20213;-66
2023/09/24 08:43:47;;;;;;;7.65;2.35;;;;;;;;;;5003237;28;20171;-65
2023/09/24 08:46:13;;;;;;;3.80;1.83;;;;;;;;;;5004085;28;20182;-66
2023/09/24 08:48:39;;;;;;;4.75;1.75;;;;;;;;;;5001609;28;20174;-65
2023/09/24 08:51:06;;;;;;;3.33;1.60;;;;;;;;;;5007514;28;20203;-66
2023/09/24 08:53:31;;;;;;;4.07;1.60;;;;;;;;;;5010802;28;20179;-66
2023/09/24 08:55:57;;;;;;;3.05;1.63;;;;;;;;;;5008243;28;20258;-66
2023/09/24 08:58:23;;;;;;;3.67;1.13;;;;;;;;;;4992540;28;20179;-66
2023/09/24 09:00:48;;;;;;;3.13;1.55;;;;;;;;;;5009820;28;20226;-66
2023/09/24 09:03:13;;;;;;;3.20;1.63;;;;;;;;;;4992748;28;20614;-66
2023/09/24 09:05:39;;;;;;;4.53;1.50;;;;;;;;;;4990737;28;20539;-66
2023/09/24 09:08:04;;;;;;;5.68;1.67;;;;;;;;;;4995005;28;20277;-65
2023/09/24 09:10:31;;;;;;;3.85;1.67;;;;;;;;;;5008335;28;20215;-66
2023/09/24 09:13:06;;;;;;;4.82;1.50;;;;;;;;;;5008343;28;20175;-66
2023/09/24 09:15:34;;;;;;;5.25;1.70;;;;;;;;;;4990301;28;20178;-65
2023/09/24 09:18:00;;;;;;;4.93;1.52;;;;;;;;;;5010064;28;20228;-66
2023/09/24 09:20:42;;;;;;;4.03;1.52;;;;;;;;;;4993114;28;20684;-66
2023/09/24 09:23:12;;;;;;;5.85;1.20;;;;;;;;;;4988060;28;20186;-66
2023/09/24 09:25:45;;;;;;;4.47;1.42;;;;;;;;;;5010843;28;20179;-66
2023/09/24 09:28:20;;;;;;;3.88;1.20;;;;;;;;;;5008835;28;20175;-66
2023/09/24 09:31:02;;;;;;;2.28;1.02;;;;;;;;;;5010317;28;20265;-66
2023/09/24 09:33:29;;;;;;;2.40;1.23;;;;;;;;;;5004773;28;20281;-67
2023/09/24 09:35:54;;;;;;;3.28;1.27;;;;;;;;;;5005994;28;20229;-67
2023/09/24 09:38:20;;;;;;;1.67;0.82;;;;;;;;;;5008574;28;20567;-66
2023/09/24 09:40:46;;;;;;;3.05;1.15;;;;;;;;;;5009295;28;20209;-66
2023/09/24 09:43:14;;;;;;;4.13;1.42;;;;;;;;;;5006649;28;20648;-66
2023/09/24 09:45:40;;;;;;;4.50;2.15;;;;;;;;;;5010525;28;20183;-66
2023/09/24 09:48:06;;;;;;;3.22;1.20;;;;;;;;;;5013930;28;20213;-67
2023/09/24 09:50:33;;;;;;;5.13;1.70;;;;;;;;;;5013398;28;20614;-65
2023/09/24 09:53:01;;;;;;;2.90;1.40;;;;;;;;;;5011176;28;20202;-66
2023/09/24 09:55:27;;;;;;;2.70;1.08;;;;;;;;;;4995742;28;20171;-66
2023/09/24 09:57:53;;;;;;;2.42;0.93;;;;;;;;;;5014323;28;20277;-66
2023/09/24 10:00:18;;;;;;;3.90;1.20;;;;;;;;;;5010646;28;20296;-66
2023/09/24 10:02:43;;;;;;;5.22;1.20;;;;;;;;;;5011677;28;20261;-66
2023/09/24 10:05:12;;;;;;;2.65;1.20;;;;;;;;;;5012824;28;20606;-66
2023/09/24 10:07:38;;;;;;;3.05;1.17;;;;;;;;;;5010367;28;20175;-65
2023/09/24 10:10:22;;;;;;;2.78;1.63;;;;;;;;;;5010408;28;20742;-66
2023/09/24 10:12:47;;;;;;;3.35;1.30;;;;;;;;;;4992189;28;20218;-66
2023/09/24 10:15:26;;;;;;;4.93;1.92;;;;;;;;;;4994935;28;20187;-67
2023/09/24 10:18:09;;;;;;;3.50;0.93;;;;;;;;;;4995293;28;20191;-67
2023/09/24 10:20:50;;;;;;;4.28;1.40;;;;;;;;;;5006253;28;20215;-67
2023/09/24 10:23:30;;;;;;;3.60;1.40;;;;;;;;;;5008438;28;20190;-65
2023/09/24 10:26:04;;;;;;;5.32;1.30;;;;;;;;;;5007937;28;20175;-65
2023/09/24 10:28:49;;;;;;;2.33;1.20;;;;;;;;;;5010363;28;20269;-65
2023/09/24 10:31:16;;;;;;;3.22;0.85;;;;;;;;;;5009974;28;20217;-65
2023/09/24 10:33:57;;;;;;;5.45;1.38;;;;;;;;;;5012369;28;20171;-66
2023/09/24 10:36:28;;;;;;;3.42;1.35;;;;;;;;;;5010451;28;20183;-65
2023/09/24 10:39:11;;;;;;;4.97;1.70;;;;;;;;;;5007986;28;20560;-66
2023/09/24 10:41:37;;;;;;;3.63;1.02;;;;;;;;;;5009746;28;20191;-65
2023/09/24 10:44:20;;;;;;;2.53;1.25;;;;;;;;;;5011723;28;20175;-66
2023/09/24 10:46:46;;;;;;;1.40;0.82;;;;;;;;;;5010580;28;20182;-65
2023/09/24 10:49:16;;;;;;;2.78;0.80;;;;;;;;;;5010816;28;20201;-65
2023/09/24 10:51:42;;;;;;;8.45;2.00;;;;;;;;;;5011658;28;20203;-65
2023/09/24 10:54:11;;;;;;;1.48;1.00;;;;;;;;;;5004680;28;20244;-66
2023/09/24 10:56:36;;;;;;;2.53;1.13;;;;;;;;;;4991989;28;20267;-64
2023/09/24 10:59:01;;;;;;;3.85;1.27;;;;;;;;;;5008297;28;20713;-65
2023/09/24 11:01:30;;;;;;;3.53;1.40;;;;;;;;;;5008111;28;20203;-65
2023/09/24 11:03:55;;;;;;;2.67;1.23;;;;;;;;;;5007210;28;20271;-65
2023/09/24 11:06:28;;;;;;;3.75;1.27;;;;;;;;;;4992396;28;20622;-66
2023/09/24 11:08:53;;;;;;;2.53;1.33;;;;;;;;;;5012234;28;20191;-66
2023/09/24 11:11:19;;;;;;;3.58;0.95;;;;;;;;;;5012056;28;20211;-66
2023/09/24 11:13:44;;;;;;;2.75;1.00;;;;;;;;;;5011291;28;20347;-65
2023/09/24 11:16:09;;;;;;;5.68;1.42;;;;;;;;;;5012262;28;20662;-65
2023/09/24 11:18:34;;;;;;;2.17;0.90;;;;;;;;;;5012431;28;20175;-65
2023/09/24 11:21:00;;;;;;;3.80;1.02;;;;;;;;;;5012387;28;20214;-65
2023/09/24 11:23:25;;;;;;;4.15;0.88;;;;;;;;;;5011470;28;20214;-65
2023/09/24 11:25:50;;;;;;;3.40;0.82;;;;;;;;;;4991475;28;20256;-65
2023/09/24 11:28:16;;;;;;;1.45;0.70;;;;;;;;;;5012276;28;20524;-66
2023/09/24 11:30:43;;;;;;;1.85;0.90;;;;;;;;;;5012638;28;20236;-66
2023/09/24 11:33:12;;;;;;;2.17;0.80;;;;;;;;;;5014377;28;20187;-65
2023/09/24 11:35:37;;;;;;;2.03;1.17;;;;;;;;;;4991751;28;20186;-66
2023/09/24 11:38:03;;;;;;;1.52;1.02;;;;;;;;;;5003754;28;20274;-66
2023/09/24 11:40:32;;;;;;;5.70;1.00;;;;;;;;;;5011510;28;20221;-65
2023/09/24 11:42:58;;;;;;;4.20;0.93;;;;;;;;;;5012183;28;20265;-65
2023/09/24 11:45:37;;;;;;;2.53;1.02;;;;;;;;;;5010436;28;20174;-65
2023/09/24 11:48:03;;;;;;;3.67;0.82;;;;;;;;;;5006102;28;20221;-65
2023/09/24 11:50:28;;;;;;;1.88;0.90;;;;;;;;;;5011478;28;20198;-67
2023/09/24 11:52:53;;;;;;;1.48;0.50;;;;;;;;;;5015575;28;20281;-66
2023/09/24 11:55:18;;;;;;;4.35;1.20;;;;;;;;;;5008697;28;20176;-65
2023/09/24 11:57:44;;;;;;;3.70;0.90;;;;;;;;;;5010660;28;20175;-65
2023/09/24 12:00:09;;;;;;;4.18;0.85;;;;;;;;;;5010398;28;20464;-65
2023/09/24 12:02:36;;;;;;;2.60;1.13;;;;;;;;;;5000258;28;20259;-65
2023/09/24 12:05:01;;;;;;;2.07;0.70;;;;;;;;;;5006904;28;20704;-65
2023/09/24 12:07:30;;;;;;;4.03;0.93;;;;;;;;;;5004527;28;20437;-66
2023/09/24 12:09:55;;;;;;;3.30;1.00;;;;;;;;;;5007772;28;20448;-65
2023/09/24 12:12:20;;;;;;;3.55;1.10;;;;;;;;;;5009205;28;20178;-65
2023/09/24 12:14:46;;;;;;;1.67;0.82;;;;;;;;;;5006315;28;20187;-66
2023/09/24 12:17:11;;;;;;;1.42;0.77;;;;;;;;;;4990840;28;20619;-65
2023/09/24 12:19:36;;;;;;;2.25;0.60;;;;;;;;;;4990259;28;20666;-65
2023/09/24 12:24:28;;;;;;;2.70;1.10;;;;;;;;;;5024280;28;20587;-72
2023/09/24 12:26:54;;;;;;;5.50;1.27;;;;;;;;;;5027531;28;20668;-71
2023/09/24 12:29:19;;;;;;;3.77;0.63;;;;;;;;;;5025761;28;20178;-72
2023/09/24 12:31:44;;;;;;;3.35;0.70;;;;;;;;;;5021617;28;20438;-71
2023/09/24 12:34:09;;;;;;;2.75;0.82;;;;;;;;;;5019258;28;21143;-72
2023/09/24 12:36:34;;;;;;;1.20;0.60;;;;;;;;;;5016722;28;20175;-72
2023/09/24 12:39:00;;;;;;;1.33;0.70;;;;;;;;;;5012450;28;20190;-72
2023/09/24 12:41:25;;;;;;;2.80;1.00;;;;;;;;;;5019653;28;20202;-72
2023/09/24 12:43:53;;;;;;;4.10;0.80;;;;;;;;;;5010385;28;20186;-72
2023/09/24 12:46:18;;;;;;;3.50;0.85;;;;;;;;;;5015357;28;20163;-72
2023/09/24 12:48:43;;;;;;;4.15;1.27;;;;;;;;;;5021594;28;20201;-72
2023/09/24 12:51:09;;;;;;;1.35;0.90;;;;;;;;;;5029598;28;20205;-72
2023/09/24 12:53:34;;;;;;;3.00;0.80;;;;;;;;;;5012610;28;20182;-72
2023/09/24 12:55:59;;;;;;;1.85;0.90;;;;;;;;;;5007008;28;20171;-72
2023/09/24 12:58:25;;;;;;;3.30;0.85;;;;;;;;;;5012884;28;20174;-71
2023/09/24 13:00:50;;;;;;;2.03;1.00;;;;;;;;;;5008415;28;20214;-72
2023/09/24 13:03:17;;;;;;;2.67;0.70;;;;;;;;;;5012051;28;20515;-72
2023/09/24 13:05:42;;;;;;;2.05;1.10;;;;;;;;;;5009494;28;20243;-72
2023/09/24 13:08:07;;;;;;;2.35;0.90;;;;;;;;;;5010177;28;20633;-71
2023/09/24 13:10:32;;;;;;;2.25;0.80;;;;;;;;;;5014351;28;20230;-71
2023/09/24 13:12:58;;;;;;;2.03;0.97;;;;;;;;;;5016750;28;20187;-71
2023/09/24 13:15:23;;;;;;;1.95;1.13;;;;;;;;;;5022919;28;20423;-72
2023/09/24 13:17:49;;;;;;;2.03;0.73;;;;;;;;;;5019772;28;20192;-72
2023/09/24 13:20:14;;;;;;;2.83;0.70;;;;;;;;;;5021305;28;20423;-72
2023/09/24 13:22:39;;;;;;;1.92;0.80;;;;;;;;;;5026208;28;20474;-72
2023/09/24 13:25:05;;;;;;;2.85;0.93;;;;;;;;;;5018467;28;20682;-72
2023/09/24 13:27:31;;;;;;;3.00;0.90;;;;;;;;;;5028804;28;20163;-72
2023/09/24 13:29:57;;;;;;;2.70;1.00;;;;;;;;;;5014931;28;20194;-71
2023/09/24 13:32:24;;;;;;;2.00;1.05;;;;;;;;;;5024690;28;20213;-71
2023/09/24 13:34:49;;;;;;;1.50;0.80;;;;;;;;;;5029463;28;20183;-72
2023/09/24 13:37:14;;;;;;;1.80;0.65;;;;;;;;;;5016961;28;20175;-72
2023/09/24 13:39:40;;;;;;;1.33;0.80;;;;;;;;;;5022471;28;20694;-71
2023/09/24 13:42:05;;;;;;;2.38;1.02;;;;;;;;;;5016146;28;20201;-71
2023/09/24 13:44:31;;;;;;;2.60;0.80;;;;;;;;;;5024308;28;20642;-72
2023/09/24 13:46:57;;;;;;;1.85;0.77;;;;;;;;;;5014394;28;20455;-72
2023/09/24 13:49:23;;;;;;;9.88;1.65;;;;;;;;;;5020585;28;20186;-72
2023/09/24 13:51:51;;;;;;;3.60;1.00;;;;;;;;;;5018860;28;20199;-71
2023/09/24 13:54:16;;;;;;;2.25;0.85;;;;;;;;;;5019352;28;20186;-72
2023/09/24 13:56:41;;;;;;;1.90;0.70;;;;;;;;;;5019865;28;20166;-72
2023/09/24 13:59:07;;;;;;;5.55;1.20;;;;;;;;;;5013607;28;20175;-70
2023/09/24 14:01:32;;;;;;;3.53;1.15;;;;;;;;;;5017087;28;20210;-71
2023/09/24 14:03:58;;;;;;;5.80;1.15;;;;;;;;;;5020539;28;20215;-71
2023/09/24 14:06:23;;;;;;;2.25;0.73;;;;;;;;;;5024779;28;20234;-71
2023/09/24 14:14:16;;;;;;;2.85;0.90;;;;;;;;;;5023218;28;20240;-73
2023/09/24 14:16:42;;;;;;;2.40;0.80;;;;;;;;;;5013130;28;20506;-73
2023/09/24 14:19:08;;;;;;;2.30;0.68;;;;;;;;;;5016515;28;20277;-73
2023/09/24 14:21:33;;;;;;;1.50;1.10;;;;;;;;;;5016790;28;20203;-73
2023/09/24 14:23:59;;;;;;;1.45;1.02;;;;;;;;;;5016860;28;20190;-72
2023/09/24 14:26:24;;;;;;;3.63;1.30;;;;;;;;;;5029545;28;20835;-72
2023/09/24 14:28:49;;;;;;;3.85;0.70;;;;;;;;;;5019300;28;20175;-73
2023/09/24 14:31:16;;;;;;;1.67;0.80;;;;;;;;;;5020271;28;20194;-71
2023/09/24 14:33:41;;;;;;;3.03;1.10;;;;;;;;;;5017121;28;20424;-71
2023/09/24 14:36:07;;;;;;;2.55;0.90;;;;;;;;;;5016050;28;20638;-72
2023/09/24 14:38:33;;;;;;;1.20;0.60;;;;;;;;;;5025803;28;20841;-71